Time;durP1;ratioP1;P1;durP2;ratioP2;P2;SDS_P1;SDS_P2;PMS_P1;PMS_P2;Temp;Humidity;BMP_temperature;BMP_pressure;BME280_temperature;BME280_humidity;BME280_pressure;Samples;Min_cycle;Max_cycle;Signal;HPM_P1;HPM_P2
2023/02/17 00:01:54;;;;;;;0.50;0.30;;;;;;;;;;5090897;28;20506;-64
2023/02/17 00:04:24;;;;;;;1.08;0.30;;;;;;;;;;5071669;28;20068;-63
2023/02/17 00:06:54;;;;;;;1.20;0.30;;;;;;;;;;5090940;28;20048;-64
2023/02/17 00:09:24;;;;;;;2.42;0.30;;;;;;;;;;5072268;28;20416;-63
2023/02/17 00:11:54;;;;;;;0.73;0.70;;;;;;;;;;5090977;28;20368;-63
2023/02/17 00:14:24;;;;;;;2.95;0.77;;;;;;;;;;5038037;28;20055;-63
2023/02/17 00:16:54;;;;;;;5.43;1.17;;;;;;;;;;5071675;28;20479;-64
2023/02/17 00:19:24;;;;;;;3.17;0.52;;;;;;;;;;5090831;28;20063;-65
2023/02/17 00:21:57;;;;;;;2.35;0.47;;;;;;;;;;5090089;28;20514;-63
2023/02/17 00:24:27;;;;;;;;;;;;;;;;;;5072173;28;20052;-64
2023/02/17 00:26:57;;;;;;;3.03;0.57;;;;;;;;;;5089959;28;19920;-63
2023/02/17 00:29:27;;;;;;;2.85;0.30;;;;;;;;;;5047515;28;20053;-64
2023/02/17 00:31:59;;;;;;;2.42;0.40;;;;;;;;;;4998173;28;20053;-65
2023/02/17 00:34:30;;;;;;;2.10;0.40;;;;;;;;;;4982890;28;20053;-65
2023/02/17 00:37:00;;;;;;;1.45;0.43;;;;;;;;;;5047916;28;20176;-64
2023/02/17 00:39:30;;;;;;;1.17;0.35;;;;;;;;;;5007805;28;20061;-64
2023/02/17 00:42:00;;;;;;;1.48;0.32;;;;;;;;;;4953987;28;20051;-65
2023/02/17 00:44:30;;;;;;;0.50;0.40;;;;;;;;;;4933771;28;20047;-66
2023/02/17 00:47:00;;;;;;;4.03;0.30;;;;;;;;;;4934184;28;20059;-65
2023/02/17 00:49:30;;;;;;;1.33;0.77;;;;;;;;;;4949627;28;20429;-64
2023/02/17 00:52:00;;;;;;;1.75;0.47;;;;;;;;;;4970250;28;20051;-64
2023/02/17 00:54:33;;;;;;;0.85;0.45;;;;;;;;;;4952784;28;20054;-65
2023/02/17 00:57:05;;;;;;;0.85;0.32;;;;;;;;;;4968587;28;20062;-63
2023/02/17 00:59:36;;;;;;;1.35;0.40;;;;;;;;;;4921135;28;20511;-64
2023/02/17 01:02:08;;;;;;;1.67;0.38;;;;;;;;;;4952212;28;20058;-64
2023/02/17 01:04:38;;;;;;;0.60;0.30;;;;;;;;;;4968968;28;20059;-64
2023/02/17 01:07:09;;;;;;;0.95;0.47;;;;;;;;;;4982257;28;20438;-65
2023/02/17 01:09:39;;;;;;;2.17;0.30;;;;;;;;;;4975304;28;20054;-65
2023/02/17 01:12:12;;;;;;;0.88;0.30;;;;;;;;;;4991901;28;20062;-64
2023/02/17 01:14:42;;;;;;;1.05;0.30;;;;;;;;;;4991814;28;20090;-64
2023/02/17 01:17:14;;;;;;;0.90;0.70;;;;;;;;;;4986508;28;20054;-64
2023/02/17 01:19:45;;;;;;;1.15;0.95;;;;;;;;;;4962980;28;20431;-64
2023/02/17 01:22:16;;;;;;;1.27;0.70;;;;;;;;;;5000454;28;20421;-63
2023/02/17 01:24:47;;;;;;;1.35;0.30;;;;;;;;;;5051186;28;20065;-64
2023/02/17 01:27:18;;;;;;;0.75;0.40;;;;;;;;;;4997877;28;20429;-64
2023/02/17 01:29:49;;;;;;;1.10;0.47;;;;;;;;;;4962164;28;20054;-64
2023/02/17 01:32:19;;;;;;;2.92;0.45;;;;;;;;;;4994099;28;20165;-64
2023/02/17 01:34:51;;;;;;;1.75;1.58;;;;;;;;;;5011240;28;20391;-64
2023/02/17 01:37:21;;;;;;;1.20;0.50;;;;;;;;;;4991155;28;20054;-64
2023/02/17 01:39:51;;;;;;;0.70;0.52;;;;;;;;;;4958380;28;20050;-64
2023/02/17 01:42:20;;;;;;;3.63;0.38;;;;;;;;;;4958624;28;20054;-64
2023/02/17 01:45:34;;;;;;;1.42;0.40;;;;;;;;;;4942673;29;20428;-64
2023/02/17 01:48:16;;;;;;;2.40;0.60;;;;;;;;;;4917149;29;20412;-64
2023/02/17 01:51:10;;;;;;;0.47;0.30;;;;;;;;;;4933059;29;20123;-64
2023/02/17 01:53:47;;;;;;;1.08;0.40;;;;;;;;;;4876550;29;20170;-64
2023/02/17 01:56:17;;;;;;;0.93;0.47;;;;;;;;;;4891062;29;20391;-63
2023/02/17 01:58:54;;;;;;;0.55;0.25;;;;;;;;;;4887717;29;20064;-63
2023/02/17 02:01:24;;;;;;;0.80;0.40;;;;;;;;;;4895460;29;20060;-63
2023/02/17 02:03:54;;;;;;;1.45;0.77;;;;;;;;;;4894585;29;20441;-63
2023/02/17 02:06:26;;;;;;;0.88;0.47;;;;;;;;;;4895873;29;20048;-64
2023/02/17 02:09:14;;;;;;;1.30;0.50;;;;;;;;;;4927891;29;20066;-63
2023/02/17 02:11:48;;;;;;;0.57;0.40;;;;;;;;;;4935956;28;20051;-63
2023/02/17 02:14:20;;;;;;;3.42;0.70;;;;;;;;;;4928801;29;20059;-64
2023/02/17 02:17:08;;;;;;;0.40;0.30;;;;;;;;;;4913729;29;20060;-64
2023/02/17 02:20:08;;;;;;;1.92;0.40;;;;;;;;;;4932652;29;20137;-64
2023/02/17 02:23:03;;;;;;;1.40;0.45;;;;;;;;;;4916882;29;20055;-63
2023/02/17 02:25:59;;;;;;;0.65;0.52;;;;;;;;;;4885554;29;20055;-63
2023/02/17 02:29:07;;;;;;;1.42;0.52;;;;;;;;;;4933002;29;20051;-63
2023/02/17 02:32:20;;;;;;;0.88;0.30;;;;;;;;;;4945225;29;20055;-64
2023/02/17 02:35:05;;;;;;;0.40;0.20;;;;;;;;;;4935554;29;20063;-63
2023/02/17 02:37:43;;;;;;;0.90;0.38;;;;;;;;;;4913211;29;20051;-65
2023/02/17 02:40:16;;;;;;;1.92;0.38;;;;;;;;;;4913030;29;20048;-64
2023/02/17 02:42:47;;;;;;;0.60;0.40;;;;;;;;;;4887955;29;20052;-64
2023/02/17 02:45:18;;;;;;;0.68;0.30;;;;;;;;;;4891588;29;20169;-65
2023/02/17 02:47:56;;;;;;;0.70;0.30;;;;;;;;;;4857804;29;20066;-65
2023/02/17 02:50:54;;;;;;;0.95;0.40;;;;;;;;;;4894187;29;20429;-62
2023/02/17 02:54:05;;;;;;;1.85;0.40;;;;;;;;;;4918331;29;20064;-63
2023/02/17 02:56:55;;;;;;;0.85;0.47;;;;;;;;;;4912755;29;20059;-63
2023/02/17 02:59:56;;;;;;;0.93;0.40;;;;;;;;;;4881630;29;20528;-63
2023/02/17 03:02:35;;;;;;;0.65;0.47;;;;;;;;;;4913086;29;20548;-63
2023/02/17 03:05:33;;;;;;;1.50;0.43;;;;;;;;;;4893874;29;20060;-63
2023/02/17 03:08:17;;;;;;;2.28;0.70;;;;;;;;;;4893822;29;20433;-63
2023/02/17 03:10:51;;;;;;;1.98;0.60;;;;;;;;;;4883847;29;20519;-64
2023/02/17 03:13:21;;;;;;;1.38;0.47;;;;;;;;;;4875181;29;20060;-63
2023/02/17 03:15:52;;;;;;;2.83;0.77;;;;;;;;;;4909068;29;20067;-63
2023/02/17 03:18:22;;;;;;;0.60;0.30;;;;;;;;;;4929258;29;20059;-63
2023/02/17 03:20:55;;;;;;;0.77;0.30;;;;;;;;;;4928246;29;20052;-64
2023/02/17 03:23:25;;;;;;;3.25;0.20;;;;;;;;;;4927724;29;20048;-64
2023/02/17 03:25:55;;;;;;;3.75;0.40;;;;;;;;;;4902945;29;20064;-64
2023/02/17 03:28:25;;;;;;;1.05;0.38;;;;;;;;;;4933436;28;20058;-64
2023/02/17 03:30:55;;;;;;;1.35;0.40;;;;;;;;;;4915245;29;20059;-64
2023/02/17 03:33:26;;;;;;;2.95;0.40;;;;;;;;;;4931323;29;20068;-63
2023/02/17 03:35:56;;;;;;;0.77;0.65;;;;;;;;;;4931187;29;20638;-64
2023/02/17 03:38:25;;;;;;;1.65;0.38;;;;;;;;;;4893561;29;20071;-64
2023/02/17 03:40:55;;;;;;;4.07;0.50;;;;;;;;;;4930993;29;20070;-63
2023/02/17 03:43:24;;;;;;;2.53;0.32;;;;;;;;;;4915008;29;20067;-64
2023/02/17 03:45:54;;;;;;;2.95;0.32;;;;;;;;;;4942259;28;20504;-64
2023/02/17 03:48:24;;;;;;;0.60;0.50;;;;;;;;;;4940371;28;20095;-64
2023/02/17 03:50:54;;;;;;;1.60;0.47;;;;;;;;;;4934249;28;20054;-64
2023/02/17 03:53:23;;;;;;;0.80;0.40;;;;;;;;;;4918511;29;20074;-64
2023/02/17 03:55:53;;;;;;;0.43;0.40;;;;;;;;;;4988881;28;20094;-64
2023/02/17 03:58:24;;;;;;;2.05;0.40;;;;;;;;;;4972420;28;20518;-64
2023/02/17 04:00:53;;;;;;;2.05;0.38;;;;;;;;;;4988846;28;20050;-64
2023/02/17 04:03:23;;;;;;;3.03;0.55;;;;;;;;;;4988941;28;20065;-63
2023/02/17 04:05:53;;;;;;;2.75;0.60;;;;;;;;;;4964613;28;20054;-63
2023/02/17 04:08:23;;;;;;;1.15;0.40;;;;;;;;;;4976489;28;20058;-64
2023/02/17 04:10:55;;;;;;;1.60;0.55;;;;;;;;;;5022007;28;20058;-64
2023/02/17 04:13:25;;;;;;;2.60;0.60;;;;;;;;;;5011382;28;20049;-64
2023/02/17 04:15:55;;;;;;;3.22;0.80;;;;;;;;;;5028021;28;20397;-64
2023/02/17 04:18:25;;;;;;;1.30;0.63;;;;;;;;;;4979007;28;20214;-64
2023/02/17 04:20:55;;;;;;;2.55;0.45;;;;;;;;;;5011219;28;20071;-63
2023/02/17 04:23:24;;;;;;;1.95;0.52;;;;;;;;;;4995154;28;20049;-64
2023/02/17 04:25:54;;;;;;;2.47;0.57;;;;;;;;;;5007428;28;20420;-64
2023/02/17 04:28:25;;;;;;;1.98;0.50;;;;;;;;;;5068129;28;20045;-64
2023/02/17 04:30:57;;;;;;;0.73;0.40;;;;;;;;;;5018508;28;20060;-65
2023/02/17 04:33:28;;;;;;;1.05;0.70;;;;;;;;;;5040566;28;20057;-64
2023/02/17 04:35:59;;;;;;;1.15;0.47;;;;;;;;;;5051967;28;20055;-64
2023/02/17 04:38:31;;;;;;;1.20;0.57;;;;;;;;;;5051276;28;20044;-64
2023/02/17 04:41:01;;;;;;;0.95;0.45;;;;;;;;;;5089594;28;20045;-64
2023/02/17 04:43:31;;;;;;;0.80;0.30;;;;;;;;;;5071880;28;20064;-64
2023/02/17 04:46:01;;;;;;;1.80;0.63;;;;;;;;;;5039215;28;20508;-64
2023/02/17 04:48:32;;;;;;;2.08;0.70;;;;;;;;;;5071895;28;20056;-64
2023/02/17 04:51:02;;;;;;;4.28;0.65;;;;;;;;;;5039402;28;20107;-64
2023/02/17 04:53:32;;;;;;;2.25;0.65;;;;;;;;;;5071924;28;20051;-64
2023/02/17 04:56:02;;;;;;;1.90;0.40;;;;;;;;;;5035117;28;20049;-64
2023/02/17 04:58:33;;;;;;;0.88;0.40;;;;;;;;;;5002218;28;20053;-64
2023/02/17 05:01:03;;;;;;;2.22;0.50;;;;;;;;;;5051587;28;20806;-64
2023/02/17 05:03:33;;;;;;;0.90;0.60;;;;;;;;;;5018434;28;20670;-64
2023/02/17 05:06:02;;;;;;;2.67;0.60;;;;;;;;;;5051533;28;20544;-64
2023/02/17 05:08:33;;;;;;;2.55;0.57;;;;;;;;;;5051658;28;20057;-64
2023/02/17 05:11:03;;;;;;;0.85;0.40;;;;;;;;;;5018346;28;20057;-64
2023/02/17 05:13:33;;;;;;;1.08;0.50;;;;;;;;;;5001696;28;20045;-64
2023/02/17 05:16:03;;;;;;;6.55;0.73;;;;;;;;;;5002813;28;20057;-64
2023/02/17 05:18:33;;;;;;;0.63;0.30;;;;;;;;;;5034179;28;20049;-64
2023/02/17 05:21:03;;;;;;;1.05;0.47;;;;;;;;;;5051044;28;20057;-64
2023/02/17 05:23:39;;;;;;;2.10;0.70;;;;;;;;;;5067908;28;20497;-64
2023/02/17 05:26:10;;;;;;;1.38;0.40;;;;;;;;;;5052542;28;20049;-64
2023/02/17 05:28:40;;;;;;;2.80;0.50;;;;;;;;;;5039275;28;20067;-64
2023/02/17 05:31:11;;;;;;;2.85;0.40;;;;;;;;;;5053684;28;20067;-64
2023/02/17 05:33:41;;;;;;;2.40;0.57;;;;;;;;;;5073700;28;20509;-64
2023/02/17 05:36:11;;;;;;;3.60;0.70;;;;;;;;;;5072578;28;20044;-64
2023/02/17 05:38:43;;;;;;;4.32;0.70;;;;;;;;;;5073367;28;20480;-64
2023/02/17 05:41:14;;;;;;;1.17;0.47;;;;;;;;;;5053872;28;20052;-64
2023/02/17 05:43:44;;;;;;;1.42;0.90;;;;;;;;;;5073540;28;20032;-64
2023/02/17 05:46:14;;;;;;;5.45;0.93;;;;;;;;;;5073495;28;20048;-64
2023/02/17 05:48:44;;;;;;;1.00;0.47;;;;;;;;;;5049404;28;20053;-64
2023/02/17 05:51:17;;;;;;;4.38;0.70;;;;;;;;;;5049899;28;20437;-64
2023/02/17 05:53:48;;;;;;;3.72;0.57;;;;;;;;;;5050725;28;20112;-63
2023/02/17 05:56:18;;;;;;;1.45;0.47;;;;;;;;;;5050877;28;20116;-64
2023/02/17 05:58:48;;;;;;;1.67;0.60;;;;;;;;;;5050531;28;20068;-64
2023/02/17 06:01:18;;;;;;;3.45;1.80;;;;;;;;;;5033806;28;20191;-64
2023/02/17 06:03:48;;;;;;;2.17;0.60;;;;;;;;;;5001485;28;20049;-64
2023/02/17 06:06:18;;;;;;;2.17;0.63;;;;;;;;;;4985430;28;20497;-64
2023/02/17 06:08:48;;;;;;;1.67;0.60;;;;;;;;;;5017366;28;20059;-64
2023/02/17 06:11:18;;;;;;;2.05;0.60;;;;;;;;;;5000790;28;20053;-63
2023/02/17 06:13:47;;;;;;;3.22;0.70;;;;;;;;;;5001025;28;20064;-64
2023/02/17 06:16:17;;;;;;;2.28;0.60;;;;;;;;;;5033259;28;20471;-64
2023/02/17 06:18:47;;;;;;;1.88;0.55;;;;;;;;;;5033299;28;20049;-64
2023/02/17 06:21:17;;;;;;;1.10;0.60;;;;;;;;;;5033412;28;20075;-64
2023/02/17 06:23:46;;;;;;;2.88;0.60;;;;;;;;;;5001617;28;20057;-63
2023/02/17 06:26:17;;;;;;;1.08;0.60;;;;;;;;;;5060035;28;20127;-63
2023/02/17 06:28:47;;;;;;;2.90;0.50;;;;;;;;;;5072501;28;20048;-63
2023/02/17 06:31:17;;;;;;;4.65;0.52;;;;;;;;;;5072184;28;20045;-63
2023/02/17 06:33:47;;;;;;;3.00;0.65;;;;;;;;;;5053462;28;20056;-63
2023/02/17 06:36:17;;;;;;;1.73;1.00;;;;;;;;;;5053532;28;20381;-63
2023/02/17 06:38:46;;;;;;;3.63;0.70;;;;;;;;;;5069886;28;20060;-63
2023/02/17 06:41:16;;;;;;;2.35;0.68;;;;;;;;;;5071917;28;20040;-63
2023/02/17 06:43:46;;;;;;;2.35;0.73;;;;;;;;;;5053248;28;20079;-63
2023/02/17 06:46:15;;;;;;;10.73;0.75;;;;;;;;;;5072377;28;20059;-63
2023/02/17 06:48:45;;;;;;;2.70;0.60;;;;;;;;;;5072173;28;20047;-63
2023/02/17 06:51:14;;;;;;;3.03;0.60;;;;;;;;;;5032614;28;20040;-63
2023/02/17 06:53:44;;;;;;;1.30;0.70;;;;;;;;;;5049313;28;20049;-63
2023/02/17 06:56:14;;;;;;;5.57;0.80;;;;;;;;;;5049782;28;20532;-64
2023/02/17 06:58:44;;;;;;;1.02;0.50;;;;;;;;;;5049126;28;20059;-64
2023/02/17 07:01:17;;;;;;;0.93;0.50;;;;;;;;;;5016358;28;20060;-64
2023/02/17 07:03:48;;;;;;;1.75;0.52;;;;;;;;;;5015225;28;20497;-65
2023/02/17 07:06:18;;;;;;;4.35;0.80;;;;;;;;;;5015801;28;20547;-63
2023/02/17 07:08:49;;;;;;;3.95;0.65;;;;;;;;;;5032090;28;20537;-64
2023/02/17 07:11:19;;;;;;;3.10;0.70;;;;;;;;;;5000189;28;20179;-64
2023/02/17 07:13:48;;;;;;;1.85;0.50;;;;;;;;;;4967000;28;20513;-64
2023/02/17 07:16:18;;;;;;;1.85;0.75;;;;;;;;;;5049102;28;20053;-64
2023/02/17 07:18:48;;;;;;;3.60;0.70;;;;;;;;;;5015747;28;20048;-64
2023/02/17 07:21:18;;;;;;;1.17;0.70;;;;;;;;;;5048872;28;20055;-64
2023/02/17 07:23:48;;;;;;;1.65;0.70;;;;;;;;;;5031936;28;20559;-64
2023/02/17 07:26:17;;;;;;;4.03;0.60;;;;;;;;;;5015867;28;20061;-64
2023/02/17 07:28:48;;;;;;;3.17;0.50;;;;;;;;;;5059048;28;20064;-64
2023/02/17 07:31:19;;;;;;;2.20;0.63;;;;;;;;;;5071297;28;20037;-64
2023/02/17 07:33:50;;;;;;;2.75;0.98;;;;;;;;;;5018941;28;20079;-64
2023/02/17 07:36:21;;;;;;;3.20;0.98;;;;;;;;;;5035826;28;21021;-64
2023/02/17 07:38:51;;;;;;;1.88;0.60;;;;;;;;;;5052524;28;20052;-64
2023/02/17 07:41:27;;;;;;;8.05;1.25;;;;;;;;;;5051631;28;20061;-64
2023/02/17 07:43:57;;;;;;;3.50;0.90;;;;;;;;;;5036147;28;20064;-64
2023/02/17 07:46:27;;;;;;;2.78;0.68;;;;;;;;;;5051843;28;20527;-64
2023/02/17 07:48:57;;;;;;;10.38;1.50;;;;;;;;;;5070951;28;20396;-64
2023/02/17 07:51:28;;;;;;;2.15;0.55;;;;;;;;;;5052006;28;20044;-64
2023/02/17 07:53:58;;;;;;;11.02;0.60;;;;;;;;;;5070753;28;20044;-64
2023/02/17 07:56:29;;;;;;;4.45;0.73;;;;;;;;;;5068510;28;20076;-64
2023/02/17 07:59:00;;;;;;;1.85;0.68;;;;;;;;;;5068214;28;20049;-64
2023/02/17 08:01:30;;;;;;;5.85;1.13;;;;;;;;;;5070878;28;20407;-64
2023/02/17 08:04:00;;;;;;;3.13;0.77;;;;;;;;;;5070768;28;20041;-64
2023/02/17 08:06:30;;;;;;;1.60;0.52;;;;;;;;;;5068789;28;20060;-64
2023/02/17 08:14:37;;;;;;;3.30;1.00;;;;;;;;;;5070422;28;20041;-64
2023/02/17 08:17:07;;;;;;;2.63;0.77;;;;;;;;;;5015432;28;20524;-63
2023/02/17 08:19:38;;;;;;;2.42;0.88;;;;;;;;;;5015814;28;20056;-64
2023/02/17 08:22:17;;;;;;;2.88;1.20;;;;;;;;;;5047893;28;20724;-70
2023/02/17 08:24:46;;;;;;;4.60;1.45;;;;;;;;;;5047761;28;20057;-61
2023/02/17 08:27:17;;;;;;;5.45;1.50;;;;;;;;;;5048064;28;20404;-61
2023/02/17 08:29:47;;;;;;;2.60;0.82;;;;;;;;;;4999145;28;20224;-62
2023/02/17 08:32:18;;;;;;;2.65;0.95;;;;;;;;;;5011237;28;20529;-60
2023/02/17 08:34:48;;;;;;;6.00;0.63;;;;;;;;;;4995089;28;20049;-61
2023/02/17 08:37:18;;;;;;;3.22;0.65;;;;;;;;;;5028219;28;20050;-60
2023/02/17 08:39:48;;;;;;;3.00;0.70;;;;;;;;;;5027485;28;20065;-60
2023/02/17 08:42:18;;;;;;;2.83;0.55;;;;;;;;;;5011836;28;20060;-62
2023/02/17 08:44:48;;;;;;;1.17;0.38;;;;;;;;;;5027714;28;20408;-63
2023/02/17 08:47:17;;;;;;;3.70;0.65;;;;;;;;;;5027940;28;20045;-62
2023/02/17 08:49:47;;;;;;;1.25;0.35;;;;;;;;;;5027825;28;20050;-61
2023/02/17 08:52:17;;;;;;;0.88;0.30;;;;;;;;;;5027897;28;20041;-62
2023/02/17 08:54:48;;;;;;;0.77;0.30;;;;;;;;;;5039265;28;20424;-64
2023/02/17 08:57:21;;;;;;;1.88;0.40;;;;;;;;;;4998532;28;20523;-63
2023/02/17 08:59:51;;;;;;;1.10;0.43;;;;;;;;;;5031364;28;20076;-63
2023/02/17 09:02:22;;;;;;;0.68;0.60;;;;;;;;;;5050302;28;20385;-63
2023/02/17 09:04:52;;;;;;;9.98;0.75;;;;;;;;;;5050375;28;20484;-64
2023/02/17 09:07:22;;;;;;;4.43;0.40;;;;;;;;;;5050142;28;20115;-66
2023/02/17 09:09:52;;;;;;;1.20;0.43;;;;;;;;;;5049988;28;20049;-71
2023/02/17 09:12:21;;;;;;;2.05;0.40;;;;;;;;;;5050302;28;20041;-73
2023/02/17 09:14:51;;;;;;;4.53;0.45;;;;;;;;;;5064005;28;20060;-74
2023/02/17 09:17:21;;;;;;;3.40;0.75;;;;;;;;;;5050357;28;20049;-69
2023/02/17 09:19:51;;;;;;;1.90;0.80;;;;;;;;;;5049753;28;20386;-68
2023/02/17 09:22:20;;;;;;;2.13;0.70;;;;;;;;;;5030992;28;20413;-69
2023/02/17 09:24:59;;;;;;;;;;;;;;;;;;5050234;28;20057;-70
2023/02/17 09:27:28;;;;;;;3.47;1.05;;;;;;;;;;5033944;28;19921;-69
2023/02/17 09:29:58;;;;;;;5.20;1.52;;;;;;;;;;5072235;28;20515;-70
2023/02/17 09:32:29;;;;;;;5.05;1.48;;;;;;;;;;5093886;28;20055;-72
2023/02/17 09:35:04;;;;;;;5.20;2.38;;;;;;;;;;5041159;28;20055;-68
2023/02/17 09:37:35;;;;;;;4.65;2.08;;;;;;;;;;5059010;28;20055;-68
2023/02/17 09:40:06;;;;;;;3.72;1.90;;;;;;;;;;5093223;28;20047;-68
2023/02/17 09:42:39;;;;;;;;;;;;;;;;;;5094041;28;20044;-68
2023/02/17 09:45:21;;;;;;;9.05;2.20;;;;;;;;;;5058107;28;19920;-68
2023/02/17 09:48:02;;;;;;;6.85;2.47;;;;;;;;;;5024630;28;20044;-70
2023/02/17 09:50:42;;;;;;;5.90;2.28;;;;;;;;;;5057311;28;20052;-71
2023/02/17 09:53:17;;;;;;;5.78;2.40;;;;;;;;;;5042346;28;20047;-68
2023/02/17 09:55:54;;;;;;;4.80;2.60;;;;;;;;;;5073975;28;20055;-67
2023/02/17 09:58:43;;;;;;;;;;;;;;;;;;5058558;28;20060;-67
2023/02/17 10:01:23;;;;;;;8.20;2.50;;;;;;;;;;5073967;28;19924;-67
2023/02/17 10:04:06;;;;;;;5.65;2.25;;;;;;;;;;5093270;28;20047;-66
2023/02/17 10:06:38;;;;;;;5.22;2.33;;;;;;;;;;5074020;28;20048;-66
2023/02/17 10:09:28;;;;;;;4.32;2.33;;;;;;;;;;5057382;28;20052;-66
2023/02/17 10:12:17;;;;;;;5.38;2.35;;;;;;;;;;5057207;28;20060;-67
2023/02/17 10:18:57;;;;;;;5.68;2.08;;;;;;;;;;5110038;28;20047;-66
2023/02/17 10:22:12;;;;;;;3.45;1.90;;;;;;;;;;5074225;28;20055;-66
2023/02/17 10:25:19;;;;;;;6.10;1.70;;;;;;;;;;5085656;28;20056;-66
2023/02/17 10:28:45;;;;;;;4.57;2.00;;;;;;;;;;5113963;28;20039;-66
2023/02/17 10:31:36;;;;;;;3.85;1.90;;;;;;;;;;5032934;28;20056;-66
2023/02/17 10:34:21;;;;;;;4.90;2.22;;;;;;;;;;5049934;28;20052;-66
2023/02/17 10:37:13;;;;;;;6.88;2.10;;;;;;;;;;5049834;28;20483;-67
2023/02/17 10:40:00;;;;;;;4.80;2.22;;;;;;;;;;5015935;28;20191;-65
2023/02/17 10:42:38;;;;;;;8.20;4.03;;;;;;;;;;5049521;28;20476;-65
2023/02/17 10:45:14;;;;;;;43.22;21.25;;;;;;;;;;5049843;28;20087;-67
2023/02/17 10:47:44;;;;;;;5.90;2.40;;;;;;;;;;5049269;28;20057;-66
2023/02/17 10:50:22;;;;;;;5.22;2.17;;;;;;;;;;5049616;28;20045;-67
2023/02/17 10:52:55;;;;;;;9.98;6.68;;;;;;;;;;5049197;28;20366;-66
2023/02/17 10:55:49;;;;;;;5.95;2.60;;;;;;;;;;5015870;28;20059;-66
2023/02/17 10:58:38;;;;;;;6.18;2.45;;;;;;;;;;5049431;28;20123;-67
2023/02/17 11:01:08;;;;;;;5.43;2.10;;;;;;;;;;5016083;28;20049;-65
2023/02/17 11:03:40;;;;;;;6.22;2.15;;;;;;;;;;5049212;28;20060;-66
2023/02/17 11:06:22;;;;;;;9.05;2.78;;;;;;;;;;5049262;28;20448;-66
2023/02/17 11:08:57;;;;;;;5.28;2.28;;;;;;;;;;5092364;28;20058;-66
2023/02/17 11:11:29;;;;;;;8.32;2.15;;;;;;;;;;5059523;28;20522;-67
2023/02/17 11:14:05;;;;;;;6.18;2.90;;;;;;;;;;5076629;28;20066;-65
2023/02/17 11:16:43;;;;;;;6.53;2.35;;;;;;;;;;5111995;28;20050;-66
2023/02/17 11:19:29;;;;;;;3.78;1.90;;;;;;;;;;5075964;28;20066;-64
2023/02/17 11:22:01;;;;;;;3.92;2.25;;;;;;;;;;5060318;28;20052;-66
2023/02/17 11:24:33;;;;;;;4.40;1.88;;;;;;;;;;5112208;28;20036;-68
2023/02/17 11:27:24;;;;;;;8.50;2.33;;;;;;;;;;5068768;28;20491;-67
2023/02/17 11:30:08;;;;;;;5.55;2.60;;;;;;;;;;5068356;28;20088;-68
2023/02/17 11:32:38;;;;;;;6.03;2.42;;;;;;;;;;5020732;28;20120;-67
2023/02/17 11:35:37;;;;;;;5.40;2.00;;;;;;;;;;5052086;28;20052;-66
2023/02/17 11:38:11;;;;;;;5.32;2.35;;;;;;;;;;5068411;28;20072;-66
2023/02/17 11:40:58;;;;;;;4.85;2.25;;;;;;;;;;5068379;28;20048;-67
2023/02/17 11:43:31;;;;;;;7.15;2.22;;;;;;;;;;5018512;28;20045;-66
2023/02/17 11:46:03;;;;;;;;;;;;;;;;;;5069014;28;20168;-64
2023/02/17 11:48:54;;;;;;;6.90;2.70;;;;;;;;;;5068018;28;20300;-64
2023/02/17 11:51:37;;;;;;;6.43;1.95;;;;;;;;;;5068260;28;20052;-63
2023/02/17 11:54:45;;;;;;;4.93;2.13;;;;;;;;;;5048202;28;20056;-64
2023/02/17 11:57:27;;;;;;;4.70;1.88;;;;;;;;;;5048290;28;20461;-65
2023/02/17 12:00:17;;;;;;;5.50;2.17;;;;;;;;;;5014915;28;20049;-66
2023/02/17 12:02:50;;;;;;;5.00;2.88;;;;;;;;;;4999137;28;20068;-67
2023/02/17 12:05:27;;;;;;;5.00;2.40;;;;;;;;;;5062194;28;20530;-64
2023/02/17 12:08:26;;;;;;;5.05;2.30;;;;;;;;;;5088318;28;20503;-64
2023/02/17 12:11:30;;;;;;;6.15;2.63;;;;;;;;;;5071677;28;20052;-63
2023/02/17 12:14:00;;;;;;;4.90;1.98;;;;;;;;;;5088125;28;20044;-63
2023/02/17 12:17:19;;;;;;;6.68;2.40;;;;;;;;;;5070703;28;20052;-65
2023/02/17 12:20:28;;;;;;;6.95;2.25;;;;;;;;;;4991793;28;20549;-66
2023/02/17 12:23:19;;;;;;;6.53;2.00;;;;;;;;;;5008140;28;20062;-67
2023/02/17 12:25:58;;;;;;;5.50;2.10;;;;;;;;;;5008364;28;20949;-66
2023/02/17 12:28:44;;;;;;;5.57;2.53;;;;;;;;;;4992617;28;20057;-66
2023/02/17 12:31:58;;;;;;;7.03;2.10;;;;;;;;;;5008109;28;20081;-65
2023/02/17 12:34:33;;;;;;;5.15;2.55;;;;;;;;;;4949858;29;20055;-65
2023/02/17 12:37:05;;;;;;;4.47;3.03;;;;;;;;;;4949857;29;20059;-65
2023/02/17 12:39:43;;;;;;;7.05;2.72;;;;;;;;;;4949523;29;20059;-66
2023/02/17 12:42:16;;;;;;;6.95;2.53;;;;;;;;;;4917758;28;20781;-65
2023/02/17 12:44:54;;;;;;;5.57;2.60;;;;;;;;;;4934140;29;20059;-65
2023/02/17 12:47:33;;;;;;;6.13;2.88;;;;;;;;;;4949946;29;20055;-65
2023/02/17 12:50:18;;;;;;;5.45;2.58;;;;;;;;;;4949767;29;20051;-64
2023/02/17 12:52:52;;;;;;;8.55;3.03;;;;;;;;;;4949138;29;20059;-65
2023/02/17 12:55:26;;;;;;;7.40;2.92;;;;;;;;;;4929993;28;20069;-65
2023/02/17 12:58:00;;;;;;;6.38;2.50;;;;;;;;;;5007248;28;20530;-65
2023/02/17 13:00:41;;;;;;;6.85;3.22;;;;;;;;;;4960098;28;20747;-65
2023/02/17 13:03:11;;;;;;;5.15;2.88;;;;;;;;;;4953214;29;20051;-65
2023/02/17 13:06:02;;;;;;;6.25;2.85;;;;;;;;;;4953423;29;20066;-65
2023/02/17 13:08:54;;;;;;;6.22;2.97;;;;;;;;;;4921409;29;20066;-65
2023/02/17 13:11:33;;;;;;;6.78;3.20;;;;;;;;;;5009697;28;20457;-64
2023/02/17 13:14:26;;;;;;;9.10;3.25;;;;;;;;;;5051321;28;20505;-65
2023/02/17 13:16:56;;;;;;;7.13;3.20;;;;;;;;;;5001876;28;20529;-64
2023/02/17 13:19:33;;;;;;;5.60;3.08;;;;;;;;;;5051164;28;20052;-65
2023/02/17 13:22:04;;;;;;;;;;;;;;;;;;5051488;28;20060;-66
2023/02/17 13:24:38;;;;;;;6.88;2.92;;;;;;;;;;5050928;28;20299;-65
2023/02/17 13:27:21;;;;;;;5.82;3.20;;;;;;;;;;5018446;28;20390;-66
2023/02/17 13:30:01;;;;;;;6.63;2.97;;;;;;;;;;4984986;28;20076;-66
2023/02/17 13:32:35;;;;;;;6.68;2.80;;;;;;;;;;5001552;28;20060;-65
2023/02/17 13:35:27;;;;;;;5.53;2.72;;;;;;;;;;5017920;28;20617;-66
2023/02/17 13:37:57;;;;;;;6.95;3.20;;;;;;;;;;5034206;28;20413;-64
2023/02/17 13:40:34;;;;;;;5.35;2.50;;;;;;;;;;5077407;28;20055;-65
2023/02/17 13:43:23;;;;;;;5.32;2.72;;;;;;;;;;5093812;28;20048;-65
2023/02/17 13:46:03;;;;;;;7.60;2.97;;;;;;;;;;5074171;28;20403;-64
2023/02/17 13:48:35;;;;;;;6.32;2.60;;;;;;;;;;5093400;28;20059;-68
2023/02/17 13:51:22;;;;;;;5.80;2.22;;;;;;;;;;5074182;28;20055;-65
2023/02/17 13:53:52;;;;;;;5.03;2.30;;;;;;;;;;5093306;28;20040;-65
2023/02/17 13:56:29;;;;;;;5.85;2.25;;;;;;;;;;5093358;28;20510;-66
2023/02/17 13:59:07;;;;;;;5.97;2.10;;;;;;;;;;5093155;28;20395;-66
2023/02/17 14:01:41;;;;;;;4.85;1.92;;;;;;;;;;5093091;28;20044;-66
2023/02/17 14:04:29;;;;;;;4.15;2.10;;;;;;;;;;5093137;28;20048;-65
2023/02/17 14:07:02;;;;;;;6.95;2.47;;;;;;;;;;5057264;28;20054;-65
2023/02/17 14:09:34;;;;;;;4.32;1.95;;;;;;;;;;5073866;28;20047;-65
2023/02/17 14:12:07;;;;;;;6.28;2.28;;;;;;;;;;5073767;28;20173;-66
2023/02/17 14:14:38;;;;;;;4.28;2.10;;;;;;;;;;5053166;28;20040;-67
2023/02/17 14:17:30;;;;;;;4.53;1.80;;;;;;;;;;5036822;28;20056;-65
2023/02/17 14:20:00;;;;;;;4.65;2.33;;;;;;;;;;5069813;28;20056;-65
2023/02/17 14:22:33;;;;;;;4.93;2.28;;;;;;;;;;5069893;28;20040;-65
2023/02/17 14:25:07;;;;;;;5.93;2.15;;;;;;;;;;5069892;28;20754;-66
2023/02/17 14:27:46;;;;;;;5.55;2.13;;;;;;;;;;5070144;28;20543;-65
2023/02/17 14:30:32;;;;;;;6.13;2.35;;;;;;;;;;5021133;28;20057;-65
2023/02/17 14:33:15;;;;;;;6.00;2.13;;;;;;;;;;5069629;28;20064;-66
2023/02/17 14:35:54;;;;;;;6.53;2.33;;;;;;;;;;5069302;28;20052;-66
2023/02/17 14:38:27;;;;;;;5.80;2.33;;;;;;;;;;5052565;28;20071;-65
2023/02/17 14:41:00;;;;;;;4.70;2.20;;;;;;;;;;5069271;28;20535;-64
2023/02/17 14:43:30;;;;;;;5.90;2.55;;;;;;;;;;5069625;28;20049;-66
2023/02/17 14:46:01;;;;;;;5.53;2.03;;;;;;;;;;5069668;28;20061;-65
2023/02/17 14:48:30;;;;;;;5.10;2.38;;;;;;;;;;5035803;28;20052;-64
2023/02/17 14:51:00;;;;;;;3.47;1.98;;;;;;;;;;5020759;28;20500;-65
2023/02/17 14:53:34;;;;;;;4.85;2.17;;;;;;;;;;5089824;28;20059;-64
2023/02/17 14:56:28;;;;;;;6.57;2.58;;;;;;;;;;5056196;28;20071;-65
2023/02/17 14:58:58;;;;;;;4.43;2.10;;;;;;;;;;5056501;28;20056;-63
2023/02/17 15:06:44;;;;;;;4.32;2.35;;;;;;;;;;5158958;27;19919;-65
2023/02/17 15:09:20;;;;;;;4.45;1.95;;;;;;;;;;5105873;27;20051;-65
2023/02/17 15:11:50;;;;;;;4.38;2.10;;;;;;;;;;5150991;27;20039;-66
2023/02/17 15:14:21;;;;;;;3.92;2.25;;;;;;;;;;5151194;27;20050;-66
2023/02/17 15:16:51;;;;;;;3.55;1.80;;;;;;;;;;5151352;27;20066;-66
2023/02/17 15:19:21;;;;;;;3.08;1.60;;;;;;;;;;5097320;27;20062;-66
2023/02/17 15:21:51;;;;;;;3.65;1.70;;;;;;;;;;5151019;27;20054;-68
2023/02/17 15:24:26;;;;;;;2.53;1.25;;;;;;;;;;5150659;27;20043;-67
2023/02/17 15:27:03;;;;;;;2.63;1.35;;;;;;;;;;5062810;28;20060;-66
2023/02/17 15:29:33;;;;;;;2.35;1.17;;;;;;;;;;5074205;28;20056;-66
2023/02/17 15:32:09;;;;;;;2.42;1.10;;;;;;;;;;5126669;28;20509;-65
2023/02/17 15:34:39;;;;;;;6.80;1.23;;;;;;;;;;5091017;28;20047;-67
2023/02/17 15:37:10;;;;;;;2.13;0.90;;;;;;;;;;5116096;28;20055;-66
2023/02/17 15:39:40;;;;;;;3.45;1.60;;;;;;;;;;5107581;28;20410;-66
2023/02/17 15:42:13;;;;;;;1.38;0.70;;;;;;;;;;5109557;28;20052;-63
2023/02/17 15:44:48;;;;;;;1.30;0.70;;;;;;;;;;5122848;28;20055;-63
2023/02/17 15:47:19;;;;;;;2.42;1.00;;;;;;;;;;5071266;28;20067;-63
2023/02/17 15:49:49;;;;;;;;;;;;;;;;;;5057462;28;20056;-63